Time;durP1;ratioP1;P1;durP2;ratioP2;P2;SDS_P1;SDS_P2;PMS_P1;PMS_P2;Temp;Humidity;BMP_temperature;BMP_pressure;BME280_temperature;BME280_humidity;BME280_pressure;Samples;Min_cycle;Max_cycle;Signal;HPM_P1;HPM_P2
2024/02/28 00:00:56;;;;;;;40.60;22.90;;;;;;;2.34;100.00;101254.44;86983;278;136376;-67
2024/02/28 00:02:58;;;;;;;33.90;20.60;;;;;;;2.30;100.00;101258.61;87188;270;26316;-67
2024/02/28 00:05:00;;;;;;;35.00;20.00;;;;;;;2.26;100.00;101262.08;87004;270;136467;-68
2024/02/28 00:07:01;;;;;;;32.20;20.00;;;;;;;2.26;100.00;101261.40;87135;273;22795;-65
2024/02/28 00:09:03;;;;;;;31.20;19.50;;;;;;;2.28;100.00;101259.14;87056;266;137092;-68
2024/02/28 00:11:05;;;;;;;42.30;22.00;;;;;;;2.26;100.00;101262.02;87089;271;24135;-67
2024/02/28 00:13:07;;;;;;;41.50;22.40;;;;;;;2.26;100.00;101265.07;87041;271;137231;-66
2024/02/28 00:15:10;;;;;;;35.40;21.40;;;;;;;2.23;100.00;101263.84;87096;266;25364;-67
2024/02/28 00:17:13;;;;;;;34.20;21.10;;;;;;;2.18;100.00;101264.09;86948;271;137087;-72
2024/02/28 00:19:16;;;;;;;41.10;21.30;;;;;;;2.12;100.00;101263.42;87031;271;22712;-69
2024/02/28 00:21:18;;;;;;;37.30;22.50;;;;;;;2.05;100.00;101263.56;86937;267;136406;-69
2024/02/28 00:23:20;;;;;;;35.90;20.20;;;;;;;2.00;100.00;101258.86;87177;274;25143;-70
2024/02/28 00:25:22;;;;;;;36.00;20.50;;;;;;;1.99;100.00;101255.09;87038;275;138860;-67
2024/02/28 00:27:24;;;;;;;34.90;20.30;;;;;;;2.00;100.00;101254.48;87074;278;22567;-67
2024/02/28 00:29:27;;;;;;;37.60;20.30;;;;;;;2.01;100.00;101255.48;86945;277;138264;-68
2024/02/28 00:31:28;;;;;;;39.40;22.20;;;;;;;2.00;100.00;101249.56;86883;272;25252;-67
2024/02/28 00:33:30;;;;;;;34.00;20.00;;;;;;;2.00;100.00;101253.04;87018;273;137252;-67
2024/02/28 00:35:33;;;;;;;31.10;20.20;;;;;;;1.99;100.00;101255.27;87109;264;24000;-69
2024/02/28 00:37:35;;;;;;;38.50;21.10;;;;;;;1.97;100.00;101253.66;87284;271;136797;-66
2024/02/28 00:39:37;;;;;;;32.10;19.20;;;;;;;1.96;100.00;101250.92;87143;271;22595;-64
2024/02/28 00:41:39;;;;;;;36.50;21.00;;;;;;;1.95;100.00;101253.04;87408;266;137722;-66
2024/02/28 00:43:41;;;;;;;40.20;22.00;;;;;;;1.93;100.00;101251.61;87601;266;25192;-66
2024/02/28 00:45:44;;;;;;;32.60;21.50;;;;;;;1.89;100.00;101252.11;86908;279;136515;-72
2024/02/28 00:47:46;;;;;;;37.80;22.30;;;;;;;1.85;100.00;101252.42;87265;271;22594;-66
2024/02/28 00:49:48;;;;;;;41.30;22.60;;;;;;;1.85;100.00;101249.77;86907;271;137432;-65
2024/02/28 00:51:49;;;;;;;31.20;20.30;;;;;;;1.88;100.00;101248.67;87086;278;24588;-66
2024/02/28 00:53:51;;;;;;;40.90;21.00;;;;;;;1.89;100.00;101244.00;86980;279;137222;-70
2024/02/28 00:55:55;;;;;;;45.80;22.80;;;;;;;1.91;100.00;101243.91;87092;263;25527;-70
2024/02/28 00:57:57;;;;;;;41.90;23.50;;;;;;;1.92;100.00;101239.27;87052;274;137005;-65
2024/02/28 00:59:59;;;;;;;38.60;21.80;;;;;;;1.93;100.00;101241.98;87495;270;22672;-66
2024/02/28 01:02:01;;;;;;;33.70;23.10;;;;;;;1.94;100.00;101243.30;87091;275;136716;-65
2024/02/28 01:04:02;;;;;;;34.30;20.50;;;;;;;1.93;100.00;101242.84;87078;270;136747;-68
2024/02/28 01:06:04;;;;;;;38.20;21.80;;;;;;;1.89;100.00;101240.69;87106;278;25133;-72
2024/02/28 01:08:06;;;;;;;35.80;22.30;;;;;;;1.87;100.00;101241.05;87052;273;136767;-69
2024/02/28 01:10:10;;;;;;;43.00;21.00;;;;;;;1.86;100.00;101240.39;87552;270;22648;-65
2024/02/28 01:12:12;;;;;;;34.90;20.80;;;;;;;1.89;100.00;101239.96;87138;274;137249;-65
2024/02/28 01:14:13;;;;;;;42.90;19.40;;;;;;;1.93;100.00;101240.73;87124;271;22558;-67
2024/02/28 01:16:15;;;;;;;33.90;19.00;;;;;;;1.97;100.00;101241.39;87020;263;137172;-66
2024/02/28 01:18:18;;;;;;;38.60;20.50;;;;;;;2.00;100.00;101233.80;87109;271;22850;-64
2024/02/28 01:20:20;;;;;;;28.90;17.30;;;;;;;2.02;100.00;101231.73;87023;278;137210;-65
2024/02/28 01:22:22;;;;;;;26.90;19.90;;;;;;;2.03;100.00;101230.24;87109;274;22606;-71
2024/02/28 01:24:24;;;;;;;34.00;20.40;;;;;;;1.98;100.00;101229.35;87125;274;136820;-71
2024/02/28 01:26:26;;;;;;;33.90;20.30;;;;;;;1.92;100.00;101231.02;86774;270;766025;-66
2024/02/28 01:28:27;;;;;;;36.40;21.80;;;;;;;1.88;100.00;101230.45;87180;270;136626;-70
2024/02/28 01:30:29;;;;;;;41.00;21.70;;;;;;;1.85;100.00;101231.01;87173;274;22554;-67
2024/02/28 01:32:31;;;;;;;38.30;22.10;;;;;;;1.86;100.00;101225.98;87392;277;137483;-72
2024/02/28 01:34:33;;;;;;;35.50;20.60;;;;;;;1.92;100.00;101228.59;87220;266;22731;-66
2024/02/28 01:36:35;;;;;;;40.00;19.10;;;;;;;1.98;100.00;101227.48;87165;277;137794;-67
2024/02/28 01:38:36;;;;;;;30.60;18.50;;;;;;;1.97;100.00;101220.35;87266;269;22564;-67
2024/02/28 01:40:43;;;;;;;37.20;20.30;;;;;;;1.93;100.00;101220.56;87216;270;137235;-67
2024/02/28 01:42:45;;;;;;;32.30;18.10;;;;;;;1.93;100.00;101220.11;87491;270;22617;-66
2024/02/28 01:44:48;;;;;;;39.10;23.60;;;;;;;1.89;100.00;101217.36;87519;277;136379;-67
2024/02/28 01:46:54;;;;;;;32.90;19.80;;;;;;;1.85;100.00;101214.91;87248;275;22573;-67
2024/02/28 01:48:58;;;;;;;27.00;17.90;;;;;;;1.81;100.00;101214.84;87441;267;136481;-65
2024/02/28 01:51:01;;;;;;;34.50;21.50;;;;;;;1.80;100.00;101217.90;87356;271;22575;-67
2024/02/28 01:53:03;;;;;;;41.00;22.50;;;;;;;1.86;100.00;101217.94;86995;267;137285;-71
2024/02/28 01:55:06;;;;;;;42.20;22.10;;;;;;;1.88;100.00;101217.45;87390;278;22563;-65
2024/02/28 01:57:09;;;;;;;32.60;19.20;;;;;;;1.92;100.00;101212.11;87170;275;138414;-67
2024/02/28 01:59:12;;;;;;;33.10;22.00;;;;;;;1.95;100.00;101214.67;87382;278;22573;-65
2024/02/28 02:01:15;;;;;;;33.10;19.20;;;;;;;1.98;100.00;101215.87;87230;271;137302;-66
2024/02/28 02:03:21;;;;;;;30.40;19.80;;;;;;;1.99;100.00;101211.75;87270;271;25409;-68
2024/02/28 02:05:22;;;;;;;36.90;21.40;;;;;;;1.96;100.00;101212.14;87169;275;136204;-65
2024/02/28 02:07:25;;;;;;;31.80;20.40;;;;;;;1.92;100.00;101217.88;87191;270;22576;-65
2024/02/28 02:09:27;;;;;;;33.40;20.90;;;;;;;1.88;100.00;101213.92;87310;266;136391;-71
2024/02/28 02:11:29;;;;;;;32.90;20.50;;;;;;;1.89;100.00;101218.60;87273;262;23250;-68
2024/02/28 02:13:32;;;;;;;39.20;19.90;;;;;;;1.92;100.00;101219.42;87143;278;137529;-66
2024/02/28 02:15:34;;;;;;;30.40;18.00;;;;;;;1.95;100.00;101214.33;87262;278;25124;-66
2024/02/28 02:17:36;;;;;;;34.30;19.10;;;;;;;1.96;100.00;101217.27;87342;266;138307;-65
2024/02/28 02:19:52;;;;;;;34.30;19.30;;;;;;;1.98;100.00;101218.20;87491;277;22567;-68
2024/02/28 02:22:09;;;;;;;28.80;17.70;;;;;;;1.99;100.00;101219.87;87485;279;27477;-65
2024/02/28 02:24:25;;;;;;;29.70;19.50;;;;;;;1.99;100.00;101217.73;87145;267;137238;-69
2024/02/28 02:26:27;;;;;;;30.50;19.90;;;;;;;1.98;100.00;101217.98;87407;278;25137;-67
2024/02/28 02:28:29;;;;;;;32.40;19.20;;;;;;;1.95;100.00;101219.23;87147;279;136456;-68
2024/02/28 02:30:31;;;;;;;31.90;19.50;;;;;;;1.92;100.00;101217.20;87525;271;22867;-67
2024/02/28 02:32:33;;;;;;;29.20;18.90;;;;;;;1.89;100.00;101220.54;87443;278;137966;-69
2024/02/28 02:34:34;;;;;;;35.00;19.90;;;;;;;1.88;100.00;101223.40;87491;271;25092;-65
2024/02/28 02:36:36;;;;;;;30.70;18.40;;;;;;;1.91;100.00;101221.11;87393;278;138295;-67
2024/02/28 02:38:38;;;;;;;35.10;18.70;;;;;;;1.94;100.00;101218.60;87448;270;22588;-66
2024/02/28 02:40:40;;;;;;;30.30;18.00;;;;;;;1.97;100.00;101220.16;87307;267;137745;-70
2024/02/28 02:42:41;;;;;;;30.30;19.40;;;;;;;1.99;100.00;101223.20;87328;275;22595;-66
2024/02/28 02:44:43;;;;;;;29.00;18.40;;;;;;;2.00;100.00;101222.23;86937;270;137360;-70
2024/02/28 02:46:45;;;;;;;35.50;19.30;;;;;;;2.01;100.00;101222.83;87193;273;22552;-67
2024/02/28 02:48:47;;;;;;;34.80;19.10;;;;;;;2.02;100.00;101224.73;87102;278;137379;-66
2024/02/28 02:50:49;;;;;;;29.90;18.20;;;;;;;1.99;100.00;101225.10;87119;274;22577;-69
2024/02/28 02:52:51;;;;;;;40.10;21.60;;;;;;;1.95;100.00;101222.75;87054;275;136264;-67
2024/02/28 02:54:53;;;;;;;36.60;20.70;;;;;;;1.90;100.00;101224.34;87208;271;22587;-69
2024/02/28 02:56:55;;;;;;;36.60;20.40;;;;;;;1.89;100.00;101223.89;87095;274;137152;-66
2024/02/28 02:58:57;;;;;;;32.10;18.50;;;;;;;1.91;100.00;101223.39;87135;278;23309;-67
2024/02/28 03:00:58;;;;;;;29.60;19.10;;;;;;;1.92;100.00;101221.91;87041;278;137107;-65
2024/02/28 03:03:01;;;;;;;29.80;17.90;;;;;;;1.94;100.00;101221.73;87209;275;25207;-68
2024/02/28 03:05:03;;;;;;;29.50;19.30;;;;;;;1.95;100.00;101218.52;87076;276;137434;-65
2024/02/28 03:07:05;;;;;;;33.50;19.20;;;;;;;1.97;100.00;101220.33;87302;273;23075;-68
2024/02/28 03:09:07;;;;;;;38.00;20.20;;;;;;;1.99;100.00;101220.69;87469;271;137052;-66
2024/02/28 03:11:09;;;;;;;28.40;18.00;;;;;;;2.04;100.00;101219.68;87477;271;25226;-67
2024/02/28 03:13:11;;;;;;;31.60;18.60;;;;;;;2.03;100.00;101220.90;87173;275;136269;-67
2024/02/28 03:15:13;;;;;;;33.10;20.30;;;;;;;2.00;100.00;101217.11;87256;271;23682;-66
2024/02/28 03:17:17;;;;;;;52.10;21.50;;;;;;;1.96;100.00;101216.55;87229;278;136253;-64
2024/02/28 03:19:20;;;;;;;34.20;20.30;;;;;;;1.94;100.00;101224.70;87267;271;22543;-66
2024/02/28 03:21:22;;;;;;;32.20;20.10;;;;;;;1.96;100.00;101224.80;87274;279;137243;-68
2024/02/28 03:23:24;;;;;;;37.40;19.60;;;;;;;1.97;100.00;101224.88;87208;271;22561;-69
2024/02/28 03:25:28;;;;;;;30.20;19.90;;;;;;;1.98;100.00;101226.37;87049;268;137053;-66
2024/02/28 03:27:29;;;;;;;28.10;18.90;;;;;;;2.02;100.00;101222.63;87272;271;22602;-66
2024/02/28 03:29:31;;;;;;;29.60;18.30;;;;;;;2.03;100.00;101227.95;86998;266;137230;-67
2024/02/28 03:31:33;;;;;;;33.20;20.00;;;;;;;2.01;100.00;101230.71;87270;277;25120;-68
2024/02/28 03:33:35;;;;;;;39.40;19.80;;;;;;;2.01;100.00;101236.02;87052;281;136735;-68
2024/02/28 03:35:37;;;;;;;36.30;19.20;;;;;;;1.99;100.00;101242.42;87602;274;25079;-66
2024/02/28 03:37:39;;;;;;;33.00;21.00;;;;;;;2.03;100.00;101243.73;87442;266;138022;-67
2024/02/28 03:39:41;;;;;;;28.80;18.30;;;;;;;2.05;100.00;101240.55;87283;274;25190;-66
2024/02/28 03:41:43;;;;;;;34.30;20.10;;;;;;;2.04;100.00;101244.05;87197;274;137877;-66
2024/02/28 03:43:45;;;;;;;39.40;20.20;;;;;;;2.00;100.00;101244.28;87387;272;25127;-65
2024/02/28 03:45:46;;;;;;;33.10;20.00;;;;;;;1.99;100.00;101245.09;86967;269;136152;-66
2024/02/28 03:47:48;;;;;;;33.90;21.10;;;;;;;1.99;100.00;101249.11;87292;270;22558;-70
2024/02/28 03:49:51;;;;;;;30.20;19.00;;;;;;;2.03;100.00;101252.72;87060;278;137121;-69
2024/02/28 03:51:53;;;;;;;31.80;21.20;;;;;;;2.05;100.00;101253.09;87168;272;24065;-66
2024/02/28 03:53:55;;;;;;;33.70;20.60;;;;;;;2.08;100.00;101249.88;87006;276;137186;-70
2024/02/28 03:55:57;;;;;;;32.20;20.20;;;;;;;2.11;100.00;101250.33;87196;279;24218;-65
2024/02/28 03:57:59;;;;;;;36.20;22.10;;;;;;;2.13;100.00;101248.60;87072;271;138464;-72
2024/02/28 04:00:02;;;;;;;31.30;20.50;;;;;;;2.17;100.00;101244.50;87300;278;24048;-66
2024/02/28 04:02:12;;;;;;;35.90;22.30;;;;;;;2.18;100.00;101247.62;87306;271;23997;-65
2024/02/28 04:04:15;;;;;;;38.70;22.90;;;;;;;2.17;100.00;101247.27;87059;265;136774;-67
2024/02/28 04:06:16;;;;;;;33.40;23.70;;;;;;;2.18;100.00;101243.73;87216;271;22528;-68
2024/02/28 04:08:18;;;;;;;38.60;23.20;;;;;;;2.17;100.00;101244.02;87399;273;136626;-65
2024/02/28 04:10:21;;;;;;;36.50;24.10;;;;;;;2.16;100.00;101247.01;87194;274;22664;-64
2024/02/28 04:12:22;;;;;;;39.70;24.70;;;;;;;2.20;100.00;101245.00;87172;270;137693;-67
2024/02/28 04:14:24;;;;;;;37.80;22.40;;;;;;;2.24;100.00;101243.66;87179;276;25083;-64
2024/02/28 04:16:26;;;;;;;36.40;23.60;;;;;;;2.26;100.00;101243.69;87030;267;138625;-65
2024/02/28 04:18:28;;;;;;;41.70;23.60;;;;;;;2.27;100.00;101244.08;87125;272;25129;-68
2024/02/28 04:20:29;;;;;;;39.00;21.90;;;;;;;2.28;100.00;101243.68;87154;267;136678;-64
2024/02/28 04:22:31;;;;;;;42.80;25.10;;;;;;;2.27;100.00;101247.47;87260;271;24036;-65
2024/02/28 04:24:33;;;;;;;39.10;23.20;;;;;;;2.23;100.00;101251.42;87153;271;136838;-67
2024/02/28 04:26:35;;;;;;;42.80;24.40;;;;;;;2.19;100.00;101251.86;87308;266;24564;-65
2024/02/28 04:28:37;;;;;;;51.70;25.40;;;;;;;2.17;100.00;101252.58;87197;268;136810;-70
2024/02/28 04:30:39;;;;;;;35.60;24.30;;;;;;;2.18;100.00;101253.52;87270;271;25233;-67
2024/02/28 04:32:41;;;;;;;38.90;25.20;;;;;;;2.20;100.00;101255.30;87159;266;137337;-69
2024/02/28 04:34:43;;;;;;;41.50;25.20;;;;;;;2.24;100.00;101255.56;87328;278;25111;-67
2024/02/28 04:36:45;;;;;;;27.90;18.40;;;;;;;2.26;100.00;101254.14;87330;270;137293;-70
2024/02/28 04:38:47;;;;;;;35.20;21.40;;;;;;;2.28;100.00;101256.84;87193;274;24023;-67
2024/02/28 04:40:50;;;;;;;28.10;19.20;;;;;;;2.27;100.00;101259.56;87150;270;136116;-66
2024/02/28 04:42:52;;;;;;;34.00;19.70;;;;;;;2.23;100.00;101258.62;87264;267;24068;-67
2024/02/28 04:44:54;;;;;;;30.40;19.50;;;;;;;2.19;100.00;101257.52;87213;266;137359;-68
2024/02/28 04:46:55;;;;;;;26.40;18.10;;;;;;;2.13;100.00;101262.80;87249;270;22584;-66
2024/02/28 04:48:57;;;;;;;29.70;18.20;;;;;;;2.12;100.00;101261.88;87208;270;140972;-66
2024/02/28 04:51:00;;;;;;;27.60;18.50;;;;;;;2.13;100.00;101260.71;87359;266;22563;-65
2024/02/28 04:53:03;;;;;;;33.40;19.10;;;;;;;2.15;100.00;101259.89;87361;278;138697;-72
2024/02/28 04:55:06;;;;;;;32.30;18.80;;;;;;;2.13;100.00;101258.92;87102;269;22575;-70
2024/02/28 04:57:08;;;;;;;29.20;16.80;;;;;;;2.13;100.00;101261.10;87282;263;137378;-66
2024/02/28 04:59:13;;;;;;;32.00;20.80;;;;;;;2.09;100.00;101259.79;87322;278;25211;-65
2024/02/28 05:01:15;;;;;;;34.50;17.50;;;;;;;2.04;100.00;101260.27;87337;271;135940;-70
2024/02/28 05:03:22;;;;;;;28.20;18.30;;;;;;;2.02;100.00;101263.45;87230;267;22562;-67
2024/02/28 05:05:24;;;;;;;26.10;17.30;;;;;;;2.00;100.00;101261.29;87339;267;136929;-63
2024/02/28 05:07:26;;;;;;;32.90;18.30;;;;;;;2.01;100.00;101261.40;87094;263;22800;-71
2024/02/28 05:09:27;;;;;;;31.30;18.60;;;;;;;2.05;100.00;101262.31;87115;275;137058;-65
2024/02/28 05:11:29;;;;;;;32.10;18.30;;;;;;;2.08;100.00;101264.94;87253;274;22573;-64
2024/02/28 05:13:31;;;;;;;28.00;18.50;;;;;;;2.12;100.00;101268.54;87211;277;138206;-66
2024/02/28 05:15:33;;;;;;;37.00;19.60;;;;;;;2.14;100.00;101266.45;87260;277;25223;-64
2024/02/28 05:17:35;;;;;;;33.10;19.80;;;;;;;2.11;100.00;101268.02;87141;274;137972;-65
2024/02/28 05:19:37;;;;;;;41.50;21.20;;;;;;;2.09;100.00;101267.87;87205;267;25082;-69
2024/02/28 05:21:42;;;;;;;34.90;20.30;;;;;;;2.06;100.00;101270.73;87136;274;136442;-65
2024/02/28 05:23:44;;;;;;;36.70;19.50;;;;;;;2.03;100.00;101267.41;87479;270;24270;-64
2024/02/28 05:28:07;;;;;;;36.60;20.30;;;;;;;1.88;100.00;101271.60;85590;287;604195;-68
2024/02/28 05:30:10;;;;;;;38.20;18.00;;;;;;;1.88;100.00;101271.96;85983;289;22823;-71
2024/02/28 05:32:12;;;;;;;27.60;17.50;;;;;;;1.94;100.00;101274.20;86077;291;136584;-66
2024/02/28 05:34:13;;;;;;;32.70;17.50;;;;;;;1.97;100.00;101277.52;86117;287;25100;-68
2024/02/28 05:36:15;;;;;;;29.10;17.90;;;;;;;1.98;100.00;101276.90;86090;289;138086;-65
2024/02/28 05:38:17;;;;;;;29.20;17.30;;;;;;;1.95;100.00;101277.58;86183;287;22568;-64
2024/02/28 05:40:19;;;;;;;34.20;20.50;;;;;;;1.98;100.00;101273.58;86090;290;137135;-64
2024/02/28 05:42:24;;;;;;;33.20;18.70;;;;;;;1.97;100.00;101272.21;86051;285;782077;-69
2024/02/28 05:44:26;;;;;;;;;;;;;;;1.98;100.00;101270.19;86624;284;137184;-68
2024/02/28 05:46:28;;;;;;;28.30;16.70;;;;;;;2.01;100.00;101271.39;86782;281;22658;-69
2024/02/28 05:48:29;;;;;;;32.20;19.70;;;;;;;2.00;100.00;101274.09;86792;279;136984;-65
2024/02/28 05:50:32;;;;;;;33.90;18.60;;;;;;;2.01;100.00;101271.96;87208;271;22924;-69
2024/02/28 05:52:34;;;;;;;32.90;19.50;;;;;;;2.04;100.00;101274.86;87239;275;137631;-64
2024/02/28 05:54:36;;;;;;;36.40;18.80;;;;;;;2.06;100.00;101273.85;87456;272;23259;-66
2024/02/28 05:56:38;;;;;;;25.30;15.90;;;;;;;2.03;100.00;101273.04;87116;267;135963;-68
2024/02/28 05:58:44;;;;;;;24.80;17.70;;;;;;;2.01;100.00;101276.49;87561;270;25136;-67
2024/02/28 06:00:47;;;;;;;33.90;18.80;;;;;;;2.00;100.00;101277.44;86988;280;136218;-69
2024/02/28 06:02:49;;;;;;;40.50;20.20;;;;;;;2.04;100.00;101277.13;87264;278;23707;-68
2024/02/28 06:04:53;;;;;;;28.70;16.40;;;;;;;2.09;100.00;101279.77;87077;278;136864;-68
2024/02/28 06:06:55;;;;;;;34.00;18.60;;;;;;;2.14;100.00;101282.74;87526;267;26191;-66
2024/02/28 06:08:57;;;;;;;28.40;18.00;;;;;;;2.19;100.00;101280.46;86965;269;136316;-71
2024/02/28 06:11:00;;;;;;;27.90;18.30;;;;;;;2.25;100.00;101280.91;87200;274;22586;-67
2024/02/28 06:13:02;;;;;;;26.80;18.00;;;;;;;2.27;100.00;101277.44;87164;277;136233;-66
2024/02/28 06:15:05;;;;;;;30.60;18.50;;;;;;;2.28;100.00;101281.58;87352;277;23608;-67
2024/02/28 06:17:07;;;;;;;29.70;18.80;;;;;;;2.28;100.00;101284.69;87046;272;136515;-66
2024/02/28 06:19:09;;;;;;;28.60;17.60;;;;;;;2.30;100.00;101284.54;87119;271;23666;-70
2024/02/28 06:21:12;;;;;;;29.80;19.40;;;;;;;2.39;100.00;101288.52;87092;263;136872;-68
2024/02/28 06:23:14;;;;;;;38.00;18.80;;;;;;;2.51;100.00;101286.95;87417;280;22560;-66
2024/02/28 06:25:28;;;;;;;28.90;17.30;;;;;;;2.63;100.00;101287.98;87442;271;136193;-69
2024/02/28 06:27:30;;;;;;;32.30;20.10;;;;;;;2.71;100.00;101290.92;87546;279;23648;-66
2024/02/28 06:29:35;;;;;;;34.50;20.10;;;;;;;2.77;100.00;101294.45;87040;272;135499;-71
2024/02/28 06:31:37;;;;;;;;;;;;;;;2.77;100.00;101294.81;87212;270;22557;-68
2024/02/28 06:33:39;;;;;;;37.80;21.50;;;;;;;2.72;100.00;101299.93;87485;274;123037;-70
2024/02/28 06:35:41;;;;;;;40.90;23.70;;;;;;;2.66;100.00;101294.93;87268;266;22572;-72
2024/02/28 06:37:49;;;;;;;34.00;22.80;;;;;;;2.66;100.00;101292.64;87418;270;137353;-66
2024/02/28 06:39:51;;;;;;;31.40;20.40;;;;;;;2.69;100.00;101294.71;87511;270;22558;-66
2024/02/28 06:41:53;;;;;;;37.60;21.80;;;;;;;2.70;100.00;101295.14;87110;269;136771;-71
2024/02/28 06:43:55;;;;;;;38.20;25.20;;;;;;;2.75;100.00;101293.02;87537;271;22516;-71
2024/02/28 06:45:56;;;;;;;34.40;22.90;;;;;;;2.80;100.00;101293.38;87118;269;137072;-68
2024/02/28 06:47:58;;;;;;;34.70;24.20;;;;;;;2.82;100.00;101296.90;87266;280;24513;-66
2024/02/28 06:50:00;;;;;;;35.20;22.20;;;;;;;2.86;100.00;101294.15;87201;270;136927;-70
2024/02/28 06:52:02;;;;;;;37.00;22.20;;;;;;;2.92;100.00;101295.13;87139;272;22821;-69
2024/02/28 06:54:05;;;;;;;45.10;24.60;;;;;;;2.94;100.00;101291.27;87289;268;22631;-68
2024/02/28 06:56:08;;;;;;;33.10;23.10;;;;;;;2.98;100.00;101295.41;87142;272;136521;-64
2024/02/28 06:58:11;;;;;;;32.30;21.60;;;;;;;2.99;100.00;101300.08;87147;272;22561;-63
2024/02/28 07:00:14;;;;;;;37.00;21.50;;;;;;;3.03;100.00;101295.73;87312;269;136977;-71
2024/02/28 07:02:16;;;;;;;33.50;20.80;;;;;;;3.09;100.00;101296.13;87486;268;24247;-69
2024/02/28 07:04:18;;;;;;;36.10;21.60;;;;;;;3.16;99.62;101305.06;87445;274;137411;-70
2024/02/28 07:06:20;;;;;;;32.50;19.50;;;;;;;3.20;99.49;101302.13;87479;267;22639;-71
2024/02/28 07:08:22;;;;;;;27.60;19.70;;;;;;;3.25;99.08;101306.13;87443;269;136936;-70
2024/02/28 07:10:23;;;;;;;26.90;18.50;;;;;;;3.28;97.86;101310.80;87065;268;23944;-69
2024/02/28 07:12:25;;;;;;;33.10;17.80;;;;;;;3.27;97.07;101307.94;87219;270;136382;-70
2024/02/28 07:14:27;;;;;;;26.10;17.30;;;;;;;3.23;96.45;101307.55;87488;270;22571;-73
2024/02/28 07:16:30;;;;;;;35.40;19.70;;;;;;;3.22;96.46;101307.09;87454;270;135445;-74
2024/02/28 07:18:33;;;;;;;30.30;19.00;;;;;;;3.25;95.22;101306.35;87536;271;22554;-73
2024/02/28 07:20:35;;;;;;;27.90;17.90;;;;;;;3.28;95.39;101307.13;87488;278;135840;-70
2024/02/28 07:22:37;;;;;;;24.10;16.60;;;;;;;3.34;94.64;101309.20;87541;267;22580;-72
2024/02/28 07:24:39;;;;;;;28.40;17.60;;;;;;;3.38;94.18;101317.31;87251;276;137961;-79
2024/02/28 07:26:42;;;;;;;27.90;14.50;;;;;;;3.39;93.13;101317.76;87546;269;23012;-74
2024/02/28 07:28:49;;;;;;;28.60;12.70;;;;;;;3.41;92.14;101314.77;87360;275;137716;-71
2024/02/28 07:30:51;;;;;;;23.90;11.40;;;;;;;3.45;91.87;101311.83;87563;270;22838;-70
2024/02/28 07:32:52;;;;;;;20.40;12.50;;;;;;;3.46;91.29;101306.86;87470;269;135684;-71
2024/02/28 07:34:55;;;;;;;19.20;12.00;;;;;;;3.49;91.75;101304.66;87537;267;22566;-75
2024/02/28 07:36:57;;;;;;;22.40;12.00;;;;;;;3.55;92.03;101307.92;87414;278;135596;-73
2024/02/28 07:38:59;;;;;;;17.60;10.90;;;;;;;3.62;91.87;101309.99;87710;278;22584;-70
2024/02/28 07:41:01;;;;;;;20.70;9.90;;;;;;;3.71;90.68;101305.63;87443;269;135852;-71
2024/02/28 07:43:03;;;;;;;17.50;10.80;;;;;;;3.76;89.89;101305.56;87247;269;24007;-74
2024/02/28 07:45:08;;;;;;;18.70;11.30;;;;;;;3.80;89.75;101312.49;87419;269;135865;-80
2024/02/28 07:47:10;;;;;;;;;;;;;;;3.82;89.46;101310.73;87659;266;25122;-72
2024/02/28 07:49:12;;;;;;;16.90;10.10;;;;;;;3.82;89.04;101314.04;87596;265;121897;-72
2024/02/28 07:51:15;;;;;;;21.40;10.90;;;;;;;3.77;88.67;101312.34;87514;273;22548;-69
2024/02/28 07:53:17;;;;;;;20.50;10.60;;;;;;;3.73;88.87;101315.64;87891;267;135615;-70
2024/02/28 07:55:19;;;;;;;24.90;10.10;;;;;;;3.71;89.56;101311.40;87324;269;22571;-72
2024/02/28 07:57:21;;;;;;;17.90;11.00;;;;;;;3.70;89.44;101311.31;87377;273;137450;-71
2024/02/28 07:59:23;;;;;;;20.40;11.40;;;;;;;3.69;89.96;101315.92;87567;271;22558;-71
2024/02/28 08:01:25;;;;;;;27.30;11.90;;;;;;;3.76;90.26;101314.41;87608;266;137025;-71
2024/02/28 08:03:27;;;;;;;26.40;9.70;;;;;;;3.82;89.77;101315.67;87595;269;22555;-69
2024/02/28 08:05:29;;;;;;;16.00;10.50;;;;;;;3.83;88.64;101318.91;87513;266;136040;-72
2024/02/28 08:07:31;;;;;;;17.70;11.10;;;;;;;3.84;87.75;101314.95;87595;269;24026;-70
2024/02/28 08:09:33;;;;;;;20.80;11.30;;;;;;;3.84;87.72;101315.81;87531;274;135768;-71
2024/02/28 08:11:34;;;;;;;22.00;10.40;;;;;;;3.85;87.55;101308.02;87614;274;22566;-75
2024/02/28 08:13:36;;;;;;;18.20;11.00;;;;;;;3.85;87.05;101310.66;87534;274;135818;-74
2024/02/28 08:15:38;;;;;;;23.20;11.20;;;;;;;3.88;87.24;101313.71;87559;277;22533;-71
2024/02/28 08:17:40;;;;;;;22.70;11.50;;;;;;;3.95;87.48;101311.96;87511;269;135815;-70
2024/02/28 08:19:42;;;;;;;19.20;10.20;;;;;;;4.06;87.25;101312.67;87627;270;22550;-70
2024/02/28 08:21:44;;;;;;;16.90;11.30;;;;;;;4.16;86.85;101302.04;87376;271;137406;-72
2024/02/28 08:23:47;;;;;;;16.50;10.40;;;;;;;4.26;85.49;101306.87;87530;272;22563;-76
2024/02/28 08:25:49;;;;;;;15.90;10.70;;;;;;;4.36;85.54;101304.65;87534;274;136934;-77
2024/02/28 08:27:51;;;;;;;24.50;10.80;;;;;;;4.46;84.78;101307.73;87641;270;22618;-69
2024/02/28 08:29:52;;;;;;;24.10;11.60;;;;;;;4.49;83.88;101309.92;87615;270;136855;-71
2024/02/28 08:31:54;;;;;;;23.60;11.50;;;;;;;4.51;83.66;101303.63;87597;267;24010;-74
2024/02/28 08:33:56;;;;;;;18.10;10.80;;;;;;;4.53;83.25;101302.59;87556;278;135742;-72
2024/02/28 08:35:58;;;;;;;21.20;10.90;;;;;;;4.56;83.29;101297.78;87642;265;23773;-71
2024/02/28 08:37:59;;;;;;;18.20;10.20;;;;;;;4.59;82.60;101300.14;87412;271;135440;-71
2024/02/28 08:40:01;;;;;;;23.40;9.80;;;;;;;4.57;82.26;101301.38;87595;278;22638;-74
2024/02/28 08:42:04;;;;;;;18.30;11.50;;;;;;;4.52;82.10;101305.52;87438;276;23972;-77
2024/02/28 08:44:05;;;;;;;17.90;10.90;;;;;;;4.49;82.64;101301.83;87458;266;137285;-71
2024/02/28 08:46:07;;;;;;;20.00;8.90;;;;;;;4.47;82.87;101303.59;87629;269;22645;-74
2024/02/28 08:48:09;;;;;;;18.20;10.20;;;;;;;4.45;82.70;101301.49;87724;271;137235;-70
2024/02/28 08:50:11;;;;;;;18.10;10.00;;;;;;;4.47;82.89;101307.45;87583;267;25357;-74
2024/02/28 08:52:13;;;;;;;18.30;9.30;;;;;;;4.50;82.91;101307.62;87505;270;136411;-69
2024/02/28 08:54:15;;;;;;;15.20;10.00;;;;;;;4.53;83.10;101306.34;87628;273;25121;-73
2024/02/28 08:56:17;;;;;;;21.20;11.50;;;;;;;4.58;83.01;101306.29;87431;274;136451;-73
2024/02/28 08:58:18;;;;;;;15.20;10.00;;;;;;;4.62;82.68;101311.34;87568;274;22584;-74
2024/02/28 09:00:21;;;;;;;17.60;10.10;;;;;;;4.63;82.29;101312.15;87357;267;137340;-71
2024/02/28 09:02:23;;;;;;;21.00;10.10;;;;;;;4.63;82.72;101310.38;87443;270;23196;-73
2024/02/28 09:04:25;;;;;;;18.90;11.40;;;;;;;4.66;82.83;101313.52;87528;274;136243;-69
2024/02/28 09:06:27;;;;;;;24.60;11.50;;;;;;;4.67;82.13;101315.74;87595;266;23468;-72
2024/02/28 09:08:29;;;;;;;20.50;11.00;;;;;;;4.68;82.55;101310.73;87669;269;136281;-70
2024/02/28 09:10:34;;;;;;;24.10;12.20;;;;;;;4.73;83.17;101304.29;87583;267;25259;-72
2024/02/28 09:12:35;;;;;;;20.20;11.50;;;;;;;4.84;82.90;101306.07;87451;270;136214;-72
2024/02/28 09:14:38;;;;;;;16.50;9.80;;;;;;;4.96;83.36;101304.52;87685;273;22685;-73
2024/02/28 09:16:40;;;;;;;22.90;10.90;;;;;;;5.11;81.73;101306.77;87768;269;137851;-69
2024/02/28 09:18:42;;;;;;;22.10;11.30;;;;;;;5.21;80.65;101311.81;87723;269;22562;-81
2024/02/28 09:20:44;;;;;;;20.00;11.20;;;;;;;5.23;80.02;101315.41;87479;270;136693;-70
2024/02/28 09:22:45;;;;;;;24.30;12.70;;;;;;;5.24;79.74;101311.66;87809;274;24222;-70
2024/02/28 09:24:48;;;;;;;17.20;10.90;;;;;;;5.27;80.49;101306.15;87298;274;136381;-72